Aeroporto :
LOGIN :

Iscrizione | Disclaimer

   EN    FR    IT 

 










Sommario :    VFR   VFR Marginale   IFR   IFR Intensivo   IFR Molto Intensivo
Visibilità : 
Base nubi : 
>= 8 km
>= 3000ft
5 / 8 km
1000 / 3000 ft
1500m / 5 km
500 / 1000 ft
800 / 1500m
200 / 500 ft
< 800m
< 200 ft
Simboli :   Temporali  Nebbia  Neve Forte  Precipitazioni Forti  Vento > 20 kt
SIGMETs :   Varie  Temporali  Ghiacco  Turbolenza  Onda orograficha  Ceneri Vulcaniche







- Altitudine del aeroporto : 1161 ft
- Codice IATA : RJL


LELO - Logroño-Agoncillo

ULTIMO METAR :
  • 210900Z 25005KT 200V290 CAVOK 15/08 Q1018

METARs OBSOLETI :
  • 210830Z 28005KT 220V340 CAVOK 14/09 Q1018
  • 210800Z 28005KT 230V330 CAVOK 13/09 Q1018
  • 210730Z 28007KT CAVOK 12/08 Q1018
  • 210700Z 26007KT CAVOK 11/08 Q1018
  • 210630Z VRB02KT CAVOK 09/08 Q1018

TAF TAF LELO
Valido dal 21 a 09 ore il 21 a 18 ore UTC


210800Z 2109/2118 VRB04KT CAVOK
PROB40
TEMPO 2115/2118 02010G20KT
Nessun NOTAM noto per questo aeroporto.



MetMap, La meteo Aeronautica in un colpo d'occhio ! - Copyright ORBIFLY Dicembre 2007 - Disclaimer

ORBIFLY MET'MAP TEAM :

Programmazione e sviluppo : Alexandra Zaïnal
Concezione e sviluppo : Baudouin d'Aumeries
Co-Programmazione e sviluppo : Marc-Olivier Méhu
Supporto tecnico e logistico : Manuel Goepfert
Aiuto per la traduzione : Arnaldo La Scala

Contatto : metmap@orbifly.com




FONTI E CREDITI :

   NOAA